Time;durP1;ratioP1;P1;durP2;ratioP2;P2;SDS_P1;SDS_P2;PMS_P1;PMS_P2;Temp;Humidity;BMP_temperature;BMP_pressure;BME280_temperature;BME280_humidity;BME280_pressure;Samples;Min_cycle;Max_cycle;Signal;HPM_P1;HPM_P2
2022/04/10 00:00:18;0.00;0.00;0.62;0.00;0.00;0.62;2.00;0.90;;;22.70;23.50;;;;;;2247762;61;20387;-63
2022/04/10 00:03:03;0.00;0.00;0.62;0.00;0.00;0.62;1.80;0.70;;;22.70;23.50;;;;;;2247941;61;20355;-66
2022/04/10 00:05:49;0.00;0.00;0.62;0.00;0.00;0.62;1.17;0.60;;;22.70;23.50;;;;;;2248017;61;20765;-64
2022/04/10 00:08:34;0.00;0.00;0.62;0.00;0.00;0.62;2.40;0.83;;;22.60;23.40;;;;;;2247278;61;20384;-66
2022/04/10 00:11:19;0.00;0.00;0.62;0.00;0.00;0.62;1.33;0.70;;;22.70;23.50;;;;;;2248282;61;20387;-64
2022/04/10 00:14:03;0.00;0.00;0.62;0.00;0.00;0.62;1.50;0.70;;;22.70;23.50;;;;;;2247456;61;20384;-64
2022/04/10 00:16:48;0.00;0.00;0.62;0.00;0.00;0.62;1.83;0.90;;;22.60;23.50;;;;;;2248161;61;20364;-63
2022/04/10 00:19:32;0.00;0.00;0.62;0.00;0.00;0.62;1.43;0.80;;;22.70;23.50;;;;;;2247628;61;20360;-63
2022/04/10 00:22:18;0.00;0.00;0.62;0.00;0.00;0.62;2.37;1.47;;;22.60;23.40;;;;;;2247701;61;20777;-61
2022/04/10 00:25:04;0.00;0.00;0.62;0.00;0.00;0.62;1.50;0.80;;;22.60;23.40;;;;;;2248323;61;20851;-62
2022/04/10 00:27:49;0.00;0.00;0.62;0.00;0.00;0.62;1.73;1.20;;;22.60;23.30;;;;;;2247161;61;20879;-68
2022/04/10 00:30:34;0.00;0.00;0.62;0.00;0.00;0.62;2.23;0.90;;;22.60;23.30;;;;;;2247507;61;20392;-70
2022/04/10 00:33:18;0.00;0.00;0.62;0.00;0.00;0.62;1.40;0.90;;;22.60;23.30;;;;;;2248691;61;20363;-71
2022/04/10 00:36:04;0.00;0.00;0.62;0.00;0.00;0.62;2.20;0.80;;;22.60;23.30;;;;;;2248327;61;20447;-69
2022/04/10 00:38:50;0.00;0.00;0.62;0.00;0.00;0.62;2.13;0.87;;;22.60;23.30;;;;;;2247425;61;20449;-69
2022/04/10 00:41:34;0.00;0.00;0.62;0.00;0.00;0.62;4.03;1.03;;;22.60;23.30;;;;;;2248159;61;20396;-70
2022/04/10 00:44:20;0.00;0.00;0.62;0.00;0.00;0.62;3.27;1.40;;;22.50;23.10;;;;;;2247943;61;20843;-69
2022/04/10 00:47:05;0.00;0.00;0.62;0.00;0.00;0.62;2.70;1.30;;;22.50;23.00;;;;;;2247696;61;20427;-69
2022/04/10 00:49:50;0.00;0.00;0.62;0.00;0.00;0.62;4.63;1.20;;;22.40;22.80;;;;;;2247397;61;20399;-70
2022/04/10 00:52:36;0.00;0.00;0.62;0.00;0.00;0.62;1.90;1.00;;;22.40;22.70;;;;;;2248015;61;20425;-68
2022/04/10 00:55:23;0.00;0.00;0.62;0.00;0.00;0.62;3.90;1.30;;;22.30;22.40;;;;;;2248086;61;20376;-69
2022/04/10 00:58:08;0.00;0.00;0.62;0.00;0.00;0.62;2.90;1.20;;;22.20;22.30;;;;;;2247165;61;20387;-66
2022/04/10 01:00:53;0.00;0.00;0.62;0.00;0.00;0.62;3.20;1.43;;;22.20;22.10;;;;;;2248226;61;20422;-68
2022/04/10 01:03:38;0.00;0.00;0.62;0.00;0.00;0.62;2.73;1.27;;;22.10;22.00;;;;;;2244377;61;20422;-67
2022/04/10 01:06:24;0.00;0.00;0.62;0.00;0.00;0.62;2.80;1.43;;;22.00;22.00;;;;;;2244528;61;20460;-67
2022/04/10 01:09:09;0.00;0.00;0.62;0.00;0.00;0.62;2.63;1.10;;;21.90;22.00;;;;;;2244259;61;20391;-67
2022/04/10 01:11:55;0.00;0.00;0.62;0.00;0.00;0.62;7.17;1.63;;;21.90;22.00;;;;;;2247608;61;20912;-67
2022/04/10 01:14:42;0.00;0.00;0.62;0.00;0.00;0.62;3.00;1.50;;;21.80;22.00;;;;;;2245105;61;20403;-69
2022/04/10 01:17:31;0.00;0.00;0.62;0.00;0.00;0.62;2.87;1.43;;;21.70;22.00;;;;;;2245287;61;20411;-68
2022/04/10 01:20:16;0.00;0.00;0.62;0.00;0.00;0.62;1.70;1.03;;;21.70;22.10;;;;;;2244680;61;20387;-67
2022/04/10 01:23:07;0.00;0.00;0.62;0.00;0.00;0.62;2.97;1.50;;;21.70;22.10;;;;;;2244632;61;20359;-68
2022/04/10 01:25:53;0.00;0.00;0.62;0.00;0.00;0.62;2.70;1.20;;;21.60;22.10;;;;;;2245147;61;20375;-67
2022/04/10 01:28:55;0.00;0.00;0.62;0.00;0.00;0.62;2.57;1.10;;;21.60;22.10;;;;;;2244253;61;20395;-67
2022/04/10 01:31:43;0.00;0.00;0.62;0.00;0.00;0.62;3.77;1.50;;;21.50;22.10;;;;;;2245046;61;20419;-67
2022/04/10 01:34:28;0.00;0.00;0.62;0.00;0.00;0.62;2.10;1.17;;;21.50;22.10;;;;;;2245182;61;20370;-71
2022/04/10 01:37:15;0.00;0.00;0.62;0.00;0.00;0.62;2.43;1.13;;;21.50;22.10;;;;;;2245328;61;20367;-69
2022/04/10 01:40:04;0.00;0.00;0.62;0.00;0.00;0.62;1.80;1.00;;;21.40;22.10;;;;;;2245373;61;20920;-67
2022/04/10 01:42:49;0.00;0.00;0.62;0.00;0.00;0.62;5.20;1.50;;;21.30;22.00;;;;;;2245199;61;20380;-68
2022/04/10 01:45:34;0.00;0.00;0.62;0.00;0.00;0.62;2.97;1.40;;;21.30;22.00;;;;;;2245396;61;20358;-68
2022/04/10 01:48:21;0.00;0.00;0.62;0.00;0.00;0.62;2.57;1.37;;;21.30;21.90;;;;;;2248660;61;20511;-67
2022/04/10 01:51:06;0.00;0.00;0.62;0.00;0.00;0.62;2.57;1.23;;;21.20;21.80;;;;;;2248247;61;20419;-67
2022/04/10 01:53:53;0.00;0.00;0.62;0.00;0.00;0.62;6.20;1.80;;;21.20;21.80;;;;;;2248671;61;20796;-67
2022/04/10 01:56:39;0.00;0.00;0.62;0.00;0.00;0.62;3.63;1.47;;;21.20;21.90;;;;;;2245053;61;20495;-69
2022/04/10 01:59:26;0.00;0.00;0.62;0.00;0.00;0.62;3.00;1.50;;;21.10;21.90;;;;;;2244885;61;20359;-67
2022/04/10 02:02:10;0.00;0.00;0.62;0.00;0.00;0.62;3.50;1.33;;;21.10;21.90;;;;;;2245576;61;20451;-67
2022/04/10 02:04:55;0.00;0.00;0.62;0.00;0.00;0.62;3.43;1.50;;;21.00;21.80;;;;;;2248647;61;20368;-67
2022/04/10 02:07:39;0.00;0.00;0.62;0.00;0.00;0.62;3.73;1.30;;;21.00;21.80;;;;;;2245318;61;20399;-67
2022/04/10 02:10:25;0.00;0.00;0.62;0.00;0.00;0.62;1.93;1.27;;;20.90;21.80;;;;;;2245185;61;20404;-68
2022/04/10 02:13:11;0.00;0.00;0.62;0.00;0.00;0.62;2.93;1.43;;;20.90;21.80;;;;;;2245543;61;20379;-68
2022/04/10 02:15:57;0.00;0.00;0.62;0.00;0.00;0.62;2.57;1.50;;;20.80;21.80;;;;;;2245518;61;20422;-67
2022/04/10 02:18:42;0.00;0.00;0.62;0.00;0.00;0.62;3.67;1.43;;;20.80;21.90;;;;;;2247820;61;20475;-71
2022/04/10 02:21:27;0.00;0.00;0.62;0.00;0.00;0.62;2.33;1.37;;;20.70;21.80;;;;;;2245763;61;20954;-66
2022/04/10 02:24:13;0.00;0.00;0.62;0.00;0.00;0.62;2.73;1.40;;;20.70;21.90;;;;;;2245446;61;20380;-66
2022/04/10 02:26:58;0.00;0.00;0.62;0.00;0.00;0.62;3.50;1.70;;;20.60;21.80;;;;;;2245363;61;20968;-67
2022/04/10 02:29:44;0.00;0.00;0.62;0.00;0.00;0.62;3.43;1.57;;;20.60;21.80;;;;;;2244830;61;20496;-68
2022/04/10 02:32:30;0.00;0.00;0.62;0.00;0.00;0.62;4.67;1.70;;;20.50;21.70;;;;;;2245420;61;20904;-67
2022/04/10 02:35:15;0.00;0.00;0.62;0.00;0.00;0.62;3.83;1.30;;;20.50;21.70;;;;;;2245312;61;20840;-67
2022/04/10 02:38:00;0.00;0.00;0.62;0.00;0.00;0.62;3.00;1.47;;;20.40;21.70;;;;;;2248158;61;20451;-67
2022/04/10 02:40:45;0.00;0.00;0.62;0.00;0.00;0.62;3.10;2.00;;;20.40;21.70;;;;;;2244935;61;20384;-67
2022/04/10 02:43:31;0.00;0.00;0.62;0.00;0.00;0.62;4.23;1.30;;;20.40;21.80;;;;;;2245496;61;20515;-67
2022/04/10 02:46:22;0.00;0.00;0.62;0.00;0.00;0.62;4.10;1.57;;;20.30;21.80;;;;;;2245766;61;20368;-68
2022/04/10 02:49:06;0.00;0.00;0.62;0.00;0.00;0.62;4.23;2.20;;;20.30;21.80;;;;;;2244619;61;20922;-68
2022/04/10 02:51:51;0.00;0.00;0.62;0.00;0.00;0.62;2.53;1.80;;;20.20;21.80;;;;;;2245027;61;20380;-67
2022/04/10 02:54:36;0.00;0.00;0.62;0.00;0.00;0.62;3.23;1.47;;;20.10;21.70;;;;;;2245278;61;20904;-68
2022/04/10 02:57:21;0.00;0.00;0.62;0.00;0.00;0.62;4.70;1.70;;;20.10;21.80;;;;;;2245177;61;20374;-67
2022/04/10 03:00:08;0.00;0.00;0.62;0.00;0.00;0.62;2.47;1.30;;;20.10;21.80;;;;;;2244842;61;20388;-67
2022/04/10 03:02:54;0.00;0.00;0.62;0.00;0.00;0.62;3.23;1.87;;;20.00;21.80;;;;;;2244926;61;20375;-69
2022/04/10 03:05:38;0.00;0.00;0.62;0.00;0.00;0.62;2.50;1.30;;;20.00;21.80;;;;;;2245425;61;20411;-68
2022/04/10 03:08:24;0.00;0.00;0.62;0.00;0.00;0.62;3.37;1.80;;;19.90;21.80;;;;;;2244887;61;20407;-67
2022/04/10 03:11:09;0.00;0.00;0.62;0.00;0.00;0.62;3.30;1.47;;;19.90;21.80;;;;;;2244937;61;20967;-69
2022/04/10 03:13:54;0.00;0.00;0.62;0.00;0.00;0.62;3.10;1.60;;;19.80;21.80;;;;;;2245033;61;20366;-68
2022/04/10 03:16:39;0.00;0.00;0.62;0.00;0.00;0.62;3.83;1.60;;;19.80;21.90;;;;;;2245205;61;20454;-68
2022/04/10 03:19:28;0.00;0.00;0.62;0.00;0.00;0.62;4.43;1.70;;;19.80;21.90;;;;;;2244685;61;20364;-68
2022/04/10 03:22:13;0.00;0.00;0.62;0.00;0.00;0.62;2.87;1.47;;;19.70;21.90;;;;;;2244991;61;20904;-69
2022/04/10 03:24:57;0.00;0.00;0.62;0.00;0.00;0.62;2.87;1.50;;;19.70;21.90;;;;;;2245275;61;20460;-67
2022/04/10 03:27:42;0.00;0.00;0.62;0.00;0.00;0.62;3.00;1.47;;;19.60;21.90;;;;;;2245499;61;20367;-68
2022/04/10 03:30:27;0.00;0.00;0.62;0.00;0.00;0.62;5.83;2.33;;;19.60;21.90;;;;;;2244840;61;20473;-71
2022/04/10 03:33:13;0.00;0.00;0.62;0.00;0.00;0.62;3.80;1.47;;;19.60;21.90;;;;;;2244923;61;20364;-67
2022/04/10 03:35:59;0.00;0.00;0.62;0.00;0.00;0.62;4.87;1.40;;;19.50;21.90;;;;;;2245046;61;20401;-67
2022/04/10 03:38:44;0.00;0.00;0.62;0.00;0.00;0.62;3.80;1.80;;;19.50;22.00;;;;;;2244782;61;20368;-67
2022/04/10 03:41:30;0.00;0.00;0.62;0.00;0.00;0.62;2.77;1.40;;;19.50;22.00;;;;;;2245046;61;20403;-67
2022/04/10 03:44:15;0.00;0.00;0.62;0.00;0.00;0.62;3.20;1.60;;;19.50;22.00;;;;;;2244733;61;20380;-68
2022/04/10 03:47:00;0.00;0.00;0.62;0.00;0.00;0.62;3.57;1.87;;;19.50;22.10;;;;;;2245238;61;20471;-67
2022/04/10 03:49:47;0.00;0.00;0.62;0.00;0.00;0.62;4.43;1.53;;;19.50;22.10;;;;;;2244887;61;20862;-67
2022/04/10 03:52:34;0.00;0.00;0.62;0.00;0.00;0.62;3.00;1.30;;;19.40;22.00;;;;;;2244901;61;20368;-68
2022/04/10 03:55:18;0.00;0.00;0.62;0.00;0.00;0.62;4.57;1.50;;;19.40;22.00;;;;;;2244886;61;20434;-69
2022/04/10 03:58:03;0.00;0.00;0.62;0.00;0.00;0.62;3.10;1.53;;;19.40;22.10;;;;;;2244344;61;20400;-68
2022/04/10 04:00:48;0.00;0.00;0.62;0.00;0.00;0.62;4.47;1.73;;;19.30;22.00;;;;;;2248302;61;20412;-70
2022/04/10 04:03:35;0.00;0.00;0.62;0.00;0.00;0.62;3.20;1.63;;;19.30;22.00;;;;;;2244753;61;20419;-67
2022/04/10 04:06:19;0.00;0.00;0.62;0.00;0.00;0.62;4.27;1.60;;;19.30;22.00;;;;;;2244955;61;20387;-68
2022/04/10 04:09:05;0.00;0.00;0.62;0.00;0.00;0.62;3.23;1.63;;;19.30;22.00;;;;;;2244743;61;21159;-68
2022/04/10 04:11:50;0.00;0.00;0.62;0.00;0.00;0.62;3.67;1.73;;;19.30;22.00;;;;;;2244944;61;20907;-67
2022/04/10 04:14:36;0.00;0.00;0.62;0.00;0.00;0.62;3.97;1.63;;;19.20;22.00;;;;;;2245141;61;20439;-69
2022/04/10 04:17:20;0.00;0.00;0.62;0.00;0.00;0.62;5.33;1.40;;;19.20;22.60;;;;;;2244895;61;20375;-68
2022/04/10 04:20:07;0.00;0.00;0.62;0.00;0.00;0.62;4.23;2.00;;;19.20;22.00;;;;;;2241624;61;20817;-68
2022/04/10 04:22:54;0.00;0.00;0.62;0.00;0.00;0.62;2.93;1.43;;;19.20;22.10;;;;;;2245278;61;20896;-67
2022/04/10 04:25:40;0.00;0.00;0.62;0.00;0.00;0.62;5.13;1.80;;;19.20;22.10;;;;;;2244710;61;20904;-68
2022/04/10 04:28:28;0.00;0.00;0.62;0.00;0.00;0.62;4.03;1.73;;;19.10;22.10;;;;;;2244906;61;20916;-67
2022/04/10 04:31:13;0.00;0.00;0.62;0.00;0.00;0.62;2.30;1.40;;;19.10;22.10;;;;;;2244925;61;20943;-68
2022/04/10 04:33:58;0.00;0.00;0.62;0.00;0.00;0.62;3.40;1.80;;;19.10;22.10;;;;;;2244983;61;20900;-67
2022/04/10 04:36:42;0.00;0.00;0.62;0.00;0.00;0.62;5.57;1.93;;;19.10;22.10;;;;;;2244879;61;20382;-68
2022/04/10 04:39:27;0.00;0.00;0.62;0.00;0.00;0.62;5.50;2.10;;;19.00;22.00;;;;;;2244190;61;20419;-67
2022/04/10 04:42:13;0.00;0.00;0.62;0.00;0.00;0.62;2.90;1.13;;;19.00;22.10;;;;;;2244905;61;20461;-67
2022/04/10 04:44:58;0.00;0.00;0.62;0.00;0.00;0.62;2.97;1.50;;;19.00;22.10;;;;;;2248454;61;20491;-68
2022/04/10 04:47:43;0.00;0.00;0.62;0.00;0.00;0.62;2.60;1.33;;;19.00;22.10;;;;;;2244861;61;20911;-67
2022/04/10 04:50:28;0.00;0.00;0.62;0.00;0.00;0.62;2.90;1.43;;;19.00;22.20;;;;;;2244509;61;20395;-68
2022/04/10 04:53:14;0.00;0.00;0.62;0.00;0.00;0.62;3.83;1.70;;;19.00;22.20;;;;;;2244745;61;20371;-68
2022/04/10 04:55:59;0.00;0.00;0.62;0.00;0.00;0.62;4.43;1.80;;;19.00;22.20;;;;;;2242214;61;20371;-67
2022/04/10 04:58:52;0.00;0.00;0.62;0.00;0.00;0.62;3.87;1.47;;;19.00;22.20;;;;;;2244120;61;20430;-67
2022/04/10 05:01:36;0.00;0.00;0.62;0.00;0.00;0.62;3.40;1.50;;;19.00;22.20;;;;;;2244713;61;20821;-68
2022/04/10 05:04:21;0.00;0.00;0.62;0.00;0.00;0.62;3.70;1.50;;;19.00;22.20;;;;;;2244587;61;20427;-66
2022/04/10 05:07:06;0.00;0.00;0.62;0.00;0.00;0.62;5.17;1.77;;;18.90;22.20;;;;;;2244842;61;20371;-66
2022/04/10 05:09:52;0.00;0.00;0.62;0.00;0.00;0.62;4.67;1.57;;;18.90;22.20;;;;;;2247318;61;20442;-67
2022/04/10 05:12:37;0.00;0.00;0.62;0.00;0.00;0.62;2.57;1.20;;;18.90;22.20;;;;;;2247696;61;20364;-67
2022/04/10 05:15:28;0.00;0.00;0.62;0.00;0.00;0.62;3.10;1.60;;;18.90;22.20;;;;;;2244777;61;20360;-67
2022/04/10 05:18:17;0.00;0.00;0.62;0.00;0.00;0.62;2.97;1.43;;;18.90;22.20;;;;;;2244459;61;20391;-67
2022/04/10 05:21:04;0.00;0.00;0.62;0.00;0.00;0.62;3.40;1.53;;;18.90;22.20;;;;;;2244677;61;20419;-67
2022/04/10 05:23:49;0.00;0.00;0.62;0.00;0.00;0.62;3.90;1.30;;;18.90;22.20;;;;;;2244355;61;20372;-67
2022/04/10 05:26:37;0.00;0.00;0.62;0.00;0.00;0.62;2.67;1.50;;;18.80;22.20;;;;;;2244730;61;20372;-68
2022/04/10 05:29:24;0.00;0.00;0.62;0.00;0.00;0.62;3.60;2.20;;;18.80;22.20;;;;;;2244790;61;20480;-67
2022/04/10 05:32:10;0.00;0.00;0.62;0.00;0.00;0.62;3.00;1.40;;;18.80;22.70;;;;;;2244408;61;20863;-68
2022/04/10 05:34:56;0.00;0.00;0.62;0.00;0.00;0.62;5.10;1.83;;;18.80;22.20;;;;;;2244625;61;20744;-67
2022/04/10 05:37:42;0.00;0.00;0.62;0.00;0.00;0.62;2.63;1.57;;;18.80;22.20;;;;;;2244795;61;20896;-67
2022/04/10 05:40:27;0.00;0.00;0.62;0.00;0.00;0.62;6.57;2.00;;;18.80;22.20;;;;;;2244657;61;20399;-67
2022/04/10 05:43:14;0.00;0.00;0.62;0.00;0.00;0.62;7.57;2.30;;;18.70;22.20;;;;;;2244517;61;20422;-67
2022/04/10 05:45:59;0.00;0.00;0.62;0.00;0.00;0.62;3.53;1.63;;;18.70;22.20;;;;;;2244648;61;20375;-67
2022/04/10 05:48:46;0.00;0.00;0.62;0.00;0.00;0.62;4.50;1.47;;;18.70;22.20;;;;;;2244109;61;20558;-70
2022/04/10 05:51:32;0.00;0.00;0.62;0.00;0.00;0.62;5.30;1.50;;;18.70;22.20;;;;;;2244889;61;20832;-67
2022/04/10 05:54:18;0.00;0.00;0.62;0.00;0.00;0.62;8.17;2.50;;;18.70;22.80;;;;;;2244705;61;20896;-68
2022/04/10 05:57:07;0.00;0.00;0.62;0.00;0.00;0.62;4.63;1.50;;;18.60;22.30;;;;;;2244333;61;20451;-68
2022/04/10 05:59:53;0.00;0.00;0.62;0.00;0.00;0.62;2.83;1.40;;;18.60;22.30;;;;;;2244381;61;20414;-68
2022/04/10 06:02:38;0.00;0.00;0.62;0.00;0.00;0.62;3.80;1.90;;;18.60;22.30;;;;;;2244427;61;20900;-68
2022/04/10 06:05:24;0.00;0.00;0.62;0.00;0.00;0.62;3.93;1.80;;;18.60;22.30;;;;;;2244549;61;20384;-67
2022/04/10 06:08:20;0.00;0.00;0.62;0.00;0.00;0.62;5.23;1.90;;;18.60;22.30;;;;;;2244214;61;20467;-67
2022/04/10 06:11:05;0.00;0.00;0.62;0.00;0.00;0.62;9.00;1.90;;;18.60;22.40;;;;;;2241511;61;20391;-67
2022/04/10 06:13:49;0.00;0.00;0.62;0.00;0.00;0.62;5.60;2.20;;;18.60;22.40;;;;;;2244840;61;20364;-67
2022/04/10 06:16:40;0.00;0.00;0.62;0.00;0.00;0.62;5.73;1.80;;;18.60;22.40;;;;;;2244550;61;20863;-67
2022/04/10 06:19:26;0.00;0.00;0.62;0.00;0.00;0.62;2.73;1.27;;;18.50;22.30;;;;;;2244835;61;20418;-67
2022/04/10 06:22:14;0.00;0.00;0.62;0.00;0.00;0.62;3.93;1.77;;;18.50;22.30;;;;;;2245295;61;20383;-67
2022/04/10 06:24:59;0.00;0.00;0.62;0.00;0.00;0.62;4.97;1.80;;;18.60;22.50;;;;;;2245126;61;20796;-69
2022/04/10 06:27:44;0.00;0.00;0.62;0.00;0.00;0.62;3.33;1.67;;;18.60;22.50;;;;;;2245083;61;20773;-67
2022/04/10 06:30:29;0.00;0.00;0.62;0.00;0.00;0.62;5.07;1.77;;;18.50;22.40;;;;;;2244567;61;20492;-71
2022/04/10 06:33:16;0.00;0.00;0.62;0.00;0.00;0.62;7.37;1.80;;;18.50;22.40;;;;;;2245133;61;20423;-65
2022/04/10 06:36:04;0.00;0.00;0.62;0.00;0.00;0.62;4.50;2.17;;;18.50;22.40;;;;;;2245497;61;20446;-66
2022/04/10 06:38:52;0.00;0.00;0.62;0.00;0.00;0.62;5.10;2.30;;;18.50;22.40;;;;;;2241948;61;20460;-70
2022/04/10 06:41:42;0.00;0.00;0.62;0.00;0.00;0.62;6.03;2.43;;;18.50;22.40;;;;;;2245237;61;20966;-65
2022/04/10 06:44:37;0.00;0.00;0.62;0.00;0.00;0.62;2.90;1.73;;;18.40;22.30;;;;;;2245182;61;20364;-64
2022/04/10 06:47:45;0.00;0.00;0.62;0.00;0.00;0.62;3.80;1.80;;;18.40;22.30;;;;;;2231692;62;20367;-64
2022/04/10 06:50:30;0.00;0.00;0.62;0.00;0.00;0.62;3.93;2.10;;;18.30;22.20;;;;;;2245417;61;20865;-64
2022/04/10 06:53:17;0.00;0.00;0.62;0.00;0.00;0.62;3.83;1.57;;;18.30;22.20;;;;;;2244815;61;20384;-65
2022/04/10 06:56:04;0.00;0.00;0.62;0.00;0.00;0.62;3.67;1.60;;;18.30;22.30;;;;;;2244986;61;20371;-64
2022/04/10 06:58:55;0.00;0.00;0.62;0.00;0.00;0.62;6.43;2.47;;;18.20;22.30;;;;;;2243954;61;20408;-67
2022/04/10 07:01:40;0.00;0.00;0.62;0.00;0.00;0.62;3.97;1.90;;;18.20;22.40;;;;;;2244620;61;20407;-64
2022/04/10 07:04:24;0.00;0.00;0.62;0.00;0.00;0.62;4.20;1.83;;;18.20;22.40;;;;;;2244421;61;20392;-66
2022/04/10 07:07:09;0.00;0.00;0.62;0.00;0.00;0.62;4.70;2.27;;;18.20;22.40;;;;;;2248084;61;20436;-66
2022/04/10 07:09:54;0.00;0.00;0.62;0.00;0.00;0.62;3.30;1.67;;;18.20;22.40;;;;;;2244564;61;20426;-66
2022/04/10 07:12:42;0.00;0.00;0.62;0.00;0.00;0.62;3.73;1.73;;;18.20;22.50;;;;;;2245058;61;20368;-65
2022/04/10 07:15:26;0.00;0.00;0.62;0.00;0.00;0.62;3.30;1.70;;;18.20;22.60;;;;;;2245007;61;20805;-70
2022/04/10 07:18:11;0.00;0.00;0.62;0.00;0.00;0.62;3.53;1.57;;;18.10;22.50;;;;;;2244321;61;20370;-67
2022/04/10 07:20:56;0.00;0.00;0.62;0.00;0.00;0.62;3.50;1.80;;;18.10;22.60;;;;;;2245054;61;20383;-71
2022/04/10 07:23:41;0.00;0.00;0.62;0.00;0.00;0.62;2.83;1.67;;;18.10;22.70;;;;;;2244026;61;20806;-72
2022/04/10 07:26:26;0.00;0.00;0.62;0.00;0.00;0.62;3.30;1.50;;;18.10;22.80;;;;;;2246841;61;20371;-69
2022/04/10 07:29:17;0.00;0.00;0.62;0.00;0.00;0.62;3.53;1.60;;;18.10;22.80;;;;;;2246357;61;20372;-70
2022/04/10 07:32:05;0.00;0.00;0.62;0.00;0.00;0.62;2.50;1.67;;;18.10;22.90;;;;;;2247162;61;20386;-62
2022/04/10 07:34:53;0.00;0.00;0.62;0.00;0.00;0.62;4.00;1.80;;;18.20;23.50;;;;;;2247987;61;20360;-67
2022/04/10 07:37:53;0.00;0.00;0.62;0.00;0.00;0.62;4.13;1.70;;;18.20;23.00;;;;;;2247523;61;20364;-69
2022/04/10 07:40:39;0.00;0.00;0.62;0.00;0.00;0.62;5.60;2.00;;;18.20;23.00;;;;;;2248025;61;20454;-66
2022/04/10 07:43:27;0.00;0.00;0.62;0.00;0.00;0.62;7.50;2.03;;;18.30;23.10;;;;;;2248518;61;20792;-72
2022/04/10 07:49:24;0.00;0.00;0.62;0.00;0.00;0.62;2.60;1.90;;;18.30;23.10;;;;;;2247664;61;20956;-68
2022/04/10 07:52:19;0.00;0.00;0.62;0.00;0.00;0.62;5.83;1.60;;;18.30;23.10;;;;;;2247970;61;20836;-65
2022/04/10 07:55:27;0.00;0.00;0.62;0.00;0.00;0.62;3.63;1.60;;;18.30;23.10;;;;;;2244783;61;20423;-64
2022/04/10 07:58:12;0.00;0.00;0.62;0.00;0.00;0.62;3.60;1.67;;;18.30;23.10;;;;;;2247823;61;20367;-70
2022/04/10 08:00:57;0.00;0.00;0.62;0.00;0.00;0.62;2.47;1.30;;;18.30;23.10;;;;;;2247927;61;20383;-66
2022/04/10 08:03:43;0.00;0.00;0.62;0.00;0.00;0.62;2.67;1.20;;;18.30;23.10;;;;;;2247691;61;20439;-64
2022/04/10 08:06:43;0.00;0.00;0.62;0.00;0.00;0.62;3.17;1.30;;;18.40;23.20;;;;;;2248560;61;20400;-67
2022/04/10 08:09:27;0.00;0.00;0.62;0.00;0.00;0.62;3.37;1.67;;;18.40;23.10;;;;;;2244268;61;20904;-70
2022/04/10 08:12:12;0.00;0.00;0.62;0.00;0.00;0.62;3.50;1.53;;;18.40;23.10;;;;;;2248702;61;20416;-64
2022/04/10 08:14:57;0.00;0.00;0.62;0.00;0.00;0.62;4.90;1.73;;;18.40;23.10;;;;;;2248546;61;20363;-64
2022/04/10 08:17:42;0.00;0.00;0.62;0.00;0.00;0.62;5.70;1.83;;;18.40;23.00;;;;;;2248131;61;20465;-64
2022/04/10 08:20:28;0.00;0.00;0.62;0.00;0.00;0.62;5.80;1.97;;;18.50;23.00;;;;;;2248384;61;20404;-65
2022/04/10 08:23:12;0.00;0.00;0.62;0.00;0.00;0.62;3.10;1.57;;;18.40;22.90;;;;;;2248183;61;21036;-62
2022/04/10 08:25:57;0.00;0.00;0.62;0.00;0.00;0.62;4.20;1.70;;;18.50;23.00;;;;;;2248211;61;20893;-62
2022/04/10 08:28:42;0.00;0.00;0.62;0.00;0.00;0.62;3.40;1.47;;;18.40;22.90;;;;;;2247364;61;20888;-59
2022/04/10 08:31:28;0.00;0.00;0.62;0.00;0.00;0.62;4.70;1.57;;;18.50;23.00;;;;;;2248067;61;20391;-58
2022/04/10 08:34:13;0.00;0.00;0.62;0.00;0.00;0.62;3.73;1.60;;;18.50;23.00;;;;;;2248617;61;20387;-61
2022/04/10 08:37:05;0.00;0.00;0.62;0.00;0.00;0.62;5.90;1.60;;;18.50;23.00;;;;;;2248331;61;20364;-72
2022/04/10 08:39:49;0.00;0.00;0.62;0.00;0.00;0.62;3.70;1.80;;;18.50;22.90;;;;;;2247650;61;20368;-61
2022/04/10 08:42:34;0.00;0.00;0.62;0.00;0.00;0.62;4.93;1.90;;;18.50;22.90;;;;;;2247900;61;20372;-63
2022/04/10 08:45:24;0.00;0.00;0.62;0.00;0.00;0.62;4.07;1.20;;;18.50;22.90;;;;;;2248145;61;20896;-61
2022/04/10 08:48:10;0.00;0.00;0.62;0.00;0.00;0.62;3.97;1.50;;;18.50;22.90;;;;;;2247670;61;20364;-60
2022/04/10 08:50:57;0.00;0.00;0.62;0.00;0.00;0.62;2.10;1.33;;;18.50;22.90;;;;;;2247629;61;20399;-70
2022/04/10 08:53:44;0.00;0.00;0.62;0.00;0.00;0.62;2.57;1.40;;;18.50;22.90;;;;;;2248307;61;20370;-67
2022/04/10 08:56:29;0.00;0.00;0.62;0.00;0.00;0.62;3.90;1.90;;;18.50;23.00;;;;;;2248511;61;20448;-69
2022/04/10 08:59:14;0.00;0.00;0.62;0.00;0.00;0.62;3.53;1.40;;;18.60;23.00;;;;;;2248179;61;20364;-73
2022/04/10 09:01:58;0.00;0.00;0.62;0.00;0.00;0.62;2.47;1.20;;;18.60;23.10;;;;;;2248569;61;20387;-67
2022/04/10 09:04:43;0.00;0.00;0.62;0.00;0.00;0.62;2.27;1.30;;;18.60;23.10;;;;;;2249249;61;20371;-66
2022/04/10 09:07:28;0.00;0.00;0.62;0.00;0.00;0.62;2.57;1.40;;;18.60;23.10;;;;;;2244604;61;20372;-69
2022/04/10 09:10:15;0.00;0.00;0.62;0.00;0.00;0.62;3.03;1.33;;;18.60;23.10;;;;;;2244356;61;20395;-68
2022/04/10 09:13:07;0.00;0.00;0.62;0.00;0.00;0.62;4.40;1.40;;;18.70;23.30;;;;;;2245017;61;20460;-67
2022/04/10 09:15:59;0.00;0.00;0.62;0.00;0.00;0.62;3.07;1.40;;;18.70;23.20;;;;;;2248013;61;20430;-60
2022/04/10 09:18:54;0.00;0.00;0.62;0.00;0.00;0.62;2.00;1.00;;;18.70;23.20;;;;;;2243117;61;20936;-64
2022/04/10 09:21:43;0.00;0.00;0.62;0.00;0.00;0.62;1.73;1.03;;;18.70;23.20;;;;;;2248427;61;20426;-60
2022/04/10 09:24:28;0.00;0.00;0.62;0.00;0.00;0.62;2.77;1.53;;;18.80;23.30;;;;;;2248009;61;20934;-68
2022/04/10 09:27:28;0.00;0.00;0.62;0.00;0.00;0.62;2.83;1.50;;;18.90;23.30;;;;;;2248055;61;20411;-70
2022/04/10 09:30:15;0.00;0.00;0.62;0.00;0.00;0.62;3.13;1.50;;;18.90;23.40;;;;;;2248064;61;20426;-68
2022/04/10 09:33:00;0.00;0.00;0.62;0.00;0.00;0.62;2.50;1.40;;;18.90;23.40;;;;;;2247758;61;20371;-70
2022/04/10 09:35:45;0.00;0.00;0.62;0.00;0.00;0.62;2.70;1.20;;;19.00;23.40;;;;;;2248323;61;20364;-67
2022/04/10 09:38:30;0.00;0.00;0.62;0.00;0.00;0.62;3.50;1.53;;;19.10;23.50;;;;;;2247282;61;20367;-68
2022/04/10 09:41:19;0.00;0.00;0.62;0.00;0.00;0.62;2.80;1.13;;;19.20;23.50;;;;;;2248066;61;20475;-57
2022/04/10 09:44:20;0.00;0.00;0.62;0.00;0.00;0.62;2.40;1.63;;;19.20;23.50;;;;;;2248565;61;20892;-67
2022/04/10 09:47:07;0.00;0.00;0.62;0.00;0.00;0.62;3.30;2.23;;;19.30;23.60;;;;;;2248276;61;20367;-61
2022/04/10 09:49:53;0.00;0.00;0.62;0.00;0.00;0.62;5.77;3.13;;;19.30;23.60;;;;;;2247868;61;20450;-63
2022/04/10 09:52:38;0.00;0.00;0.62;0.00;0.00;0.62;6.93;2.30;;;19.40;23.60;;;;;;2248396;61;20446;-63
2022/04/10 09:55:37;0.00;0.00;0.62;0.00;0.00;0.62;4.67;2.97;;;19.50;23.60;;;;;;2248685;61;20430;-61
2022/04/10 09:58:23;0.00;0.00;0.62;0.00;0.00;0.62;5.60;3.30;;;19.50;23.50;;;;;;2248757;61;20363;-63
2022/04/10 10:01:11;0.00;0.00;0.62;0.00;0.00;0.62;4.17;2.67;;;19.60;23.50;;;;;;2248318;61;20379;-62
2022/04/10 10:03:57;0.00;0.00;0.62;0.00;0.00;0.62;4.73;2.80;;;19.60;23.50;;;;;;2248674;61;20387;-64
2022/04/10 10:06:43;0.00;0.00;0.62;0.00;0.00;0.62;4.00;2.60;;;19.70;23.50;;;;;;2248414;61;20411;-59
2022/04/10 10:09:30;0.00;0.00;0.62;0.00;0.00;0.62;4.37;2.43;;;19.70;23.50;;;;;;2247919;61;20363;-55
2022/04/10 10:12:15;0.00;0.00;0.62;0.00;0.00;0.62;4.53;2.87;;;19.80;23.50;;;;;;2248544;61;20403;-57
2022/04/10 10:15:01;0.00;0.00;0.62;0.00;0.00;0.62;3.90;2.53;;;19.90;23.50;;;;;;2248577;61;20444;-60
2022/04/10 10:17:47;0.00;0.00;0.62;0.00;0.00;0.62;5.30;2.50;;;19.90;23.50;;;;;;2248114;61;20368;-60
2022/04/10 10:20:32;0.00;0.00;0.62;0.00;0.00;0.62;3.63;2.50;;;20.00;23.50;;;;;;2248805;61;20383;-60
2022/04/10 10:23:19;0.00;0.00;0.62;0.00;0.00;0.62;3.90;2.27;;;20.00;23.50;;;;;;2248145;61;20460;-56
2022/04/10 10:26:25;0.00;0.00;0.62;0.00;0.00;0.62;4.37;2.70;;;20.00;23.40;;;;;;2248931;61;20411;-59
2022/04/10 10:29:49;0.00;0.00;0.62;0.00;0.00;0.62;3.83;2.60;;;20.10;23.50;;;;;;2248500;61;20411;-54
2022/04/10 10:32:41;0.00;0.00;0.62;0.00;0.00;0.62;3.60;2.50;;;20.10;23.40;;;;;;2249027;61;20936;-56
2022/04/10 10:35:33;0.00;0.00;0.62;0.00;0.00;0.62;2.60;2.00;;;20.20;23.40;;;;;;2248957;61;20371;-57
2022/04/10 10:38:20;0.00;0.00;0.62;0.00;0.00;0.62;3.03;1.90;;;20.20;23.40;;;;;;2247776;61;20368;-59
2022/04/10 10:41:35;0.00;0.00;0.62;0.00;0.00;0.62;3.13;2.13;;;20.30;23.40;;;;;;2248657;61;20439;-57
2022/04/10 10:44:47;0.00;0.00;0.62;0.00;0.00;0.62;2.83;1.90;;;20.30;23.40;;;;;;2248398;61;20391;-60
2022/04/10 10:47:32;0.00;0.00;0.62;0.00;0.00;0.62;2.70;2.00;;;20.30;23.30;;;;;;2248745;61;20419;-55
2022/04/10 10:50:29;0.00;0.00;0.62;0.00;0.00;0.62;2.13;1.73;;;20.30;23.30;;;;;;2248440;61;20396;-53
2022/04/10 10:53:15;0.00;0.00;0.62;0.00;0.00;0.62;3.17;2.37;;;20.40;23.30;;;;;;2247729;61;20525;-53
2022/04/10 10:55:59;0.00;0.00;0.62;0.00;0.00;0.62;2.87;1.90;;;20.40;23.30;;;;;;2248452;61;20374;-55
2022/04/10 10:58:46;0.00;0.00;0.62;0.00;0.00;0.62;2.33;1.70;;;20.50;23.30;;;;;;2247691;61;20452;-54
2022/04/10 11:01:31;0.00;0.00;0.62;0.00;0.00;0.62;2.23;1.70;;;20.50;23.30;;;;;;2248118;61;20435;-54